Time;durP1;ratioP1;P1;durP2;ratioP2;P2;SDS_P1;SDS_P2;PMS_P1;PMS_P2;Temp;Humidity;BMP_temperature;BMP_pressure;BME280_temperature;BME280_humidity;BME280_pressure;Samples;Min_cycle;Max_cycle;Signal;HPM_P1;HPM_P2
2022/06/13 00:00:10;;;;;;;6.40;3.47;;;;;;;;;;4962726;28;22755;-64
2022/06/13 00:02:37;;;;;;;6.00;3.73;;;;;;;;;;4962508;28;20232;-65
2022/06/13 00:05:05;;;;;;;4.67;3.40;;;;;;;;;;4962894;28;20252;-65
2022/06/13 00:07:32;;;;;;;4.93;3.53;;;;;;;;;;4961142;28;20233;-65
2022/06/13 00:10:17;;;;;;;4.90;3.63;;;;;;;;;;4975563;28;20303;-65
2022/06/13 00:12:44;;;;;;;5.47;3.80;;;;;;;;;;4961176;28;20246;-65
2022/06/13 00:15:12;;;;;;;3.97;3.57;;;;;;;;;;4948404;28;20232;-65
2022/06/13 00:17:38;;;;;;;5.90;4.20;;;;;;;;;;4960868;28;20264;-64
2022/06/13 00:20:06;;;;;;;6.07;4.20;;;;;;;;;;4962968;28;20227;-64
2022/06/13 00:22:33;;;;;;;4.53;3.37;;;;;;;;;;4949356;28;20310;-65
2022/06/13 00:25:00;;;;;;;6.30;3.73;;;;;;;;;;4955757;28;20289;-64
2022/06/13 00:27:30;;;;;;;7.87;4.10;;;;;;;;;;4963842;28;20322;-65
2022/06/13 00:29:57;;;;;;;6.93;4.63;;;;;;;;;;4964468;28;20684;-65
2022/06/13 00:32:24;;;;;;;6.87;4.47;;;;;;;;;;4965863;28;20304;-64
2022/06/13 00:34:51;;;;;;;9.03;4.23;;;;;;;;;;4946812;28;20714;-70
2022/06/13 00:37:35;;;;;;;10.27;4.87;;;;;;;;;;4960684;28;21116;-65
2022/06/13 00:40:03;;;;;;;8.30;4.80;;;;;;;;;;4962310;28;20240;-64
2022/06/13 00:42:30;;;;;;;10.37;5.83;;;;;;;;;;4960748;28;20702;-64
2022/06/13 00:45:11;;;;;;;8.97;5.20;;;;;;;;;;4957302;28;20252;-65
2022/06/13 00:47:39;;;;;;;11.33;5.30;;;;;;;;;;4946542;28;20234;-64
2022/06/13 00:50:06;;;;;;;8.40;5.00;;;;;;;;;;4960779;28;20320;-64
2022/06/13 00:52:42;;;;;;;9.20;5.27;;;;;;;;;;4960343;28;20557;-66
2022/06/13 00:55:10;;;;;;;11.50;5.40;;;;;;;;;;4948230;28;20235;-64
2022/06/13 00:57:37;;;;;;;8.90;5.23;;;;;;;;;;4958610;28;20327;-65
2022/06/13 01:00:06;;;;;;;9.17;5.30;;;;;;;;;;4968426;28;20235;-64
2022/06/13 01:02:33;;;;;;;8.93;5.33;;;;;;;;;;4946661;28;20714;-65
2022/06/13 01:05:00;;;;;;;9.77;4.77;;;;;;;;;;4947718;28;20872;-64
2022/06/13 01:07:27;;;;;;;9.30;4.87;;;;;;;;;;4950228;28;20228;-65
2022/06/13 01:12:57;;;;;;;11.03;5.70;;;;;;;;;;4961679;28;20236;-64
2022/06/13 01:15:47;;;;;;;12.03;6.27;;;;;;;;;;4959055;28;20293;-69
2022/06/13 01:18:23;;;;;;;9.77;5.50;;;;;;;;;;4975138;28;20232;-65
2022/06/13 01:21:07;;;;;;;11.77;5.70;;;;;;;;;;4954813;28;20702;-65
2022/06/13 01:23:49;;;;;;;7.40;5.00;;;;;;;;;;4965428;28;20264;-64
2022/06/13 01:26:22;;;;;;;8.67;5.27;;;;;;;;;;4959899;28;20246;-69
2022/06/13 01:28:58;;;;;;;9.90;4.97;;;;;;;;;;4960295;28;20232;-65
2022/06/13 01:31:25;;;;;;;13.23;6.37;;;;;;;;;;4945306;28;20237;-67
2022/06/13 01:33:52;;;;;;;12.80;7.00;;;;;;;;;;4964171;28;20339;-64
2022/06/13 01:36:41;;;;;;;8.60;5.70;;;;;;;;;;4961168;28;20217;-65
2022/06/13 01:39:13;;;;;;;9.10;5.73;;;;;;;;;;4947531;28;20313;-64
2022/06/13 01:41:44;;;;;;;9.70;5.63;;;;;;;;;;4962549;28;20236;-65
2022/06/13 01:44:28;;;;;;;9.57;5.53;;;;;;;;;;4957806;28;20224;-65
2022/06/13 01:47:10;;;;;;;10.40;5.37;;;;;;;;;;4966506;28;20244;-64
2022/06/13 01:49:56;;;;;;;8.47;4.70;;;;;;;;;;4946899;28;20291;-64
2022/06/13 01:52:28;;;;;;;7.40;5.23;;;;;;;;;;4973195;28;20710;-65
2022/06/13 01:55:16;;;;;;;8.27;5.27;;;;;;;;;;4978896;28;20275;-67
2022/06/13 01:57:45;;;;;;;10.40;5.40;;;;;;;;;;5007000;28;20226;-64
2022/06/13 02:00:16;;;;;;;7.30;4.80;;;;;;;;;;5022578;28;20230;-64
2022/06/13 02:03:03;;;;;;;8.20;4.93;;;;;;;;;;5004649;28;20246;-64
2022/06/13 02:05:32;;;;;;;7.07;4.93;;;;;;;;;;5010627;28;22413;-64
2022/06/13 02:08:07;;;;;;;9.57;5.43;;;;;;;;;;4966469;28;20726;-64
2022/06/13 02:11:12;;;;;;;9.63;5.10;;;;;;;;;;4965078;28;20237;-64
2022/06/13 02:13:41;;;;;;;12.00;5.07;;;;;;;;;;4959963;28;20233;-64
2022/06/13 02:16:13;;;;;;;10.97;5.03;;;;;;;;;;4956338;28;20238;-64
2022/06/13 02:19:09;;;;;;;12.73;5.03;;;;;;;;;;4938157;28;20259;-64
2022/06/13 02:21:39;;;;;;;7.40;5.27;;;;;;;;;;4961901;28;20217;-64
2022/06/13 02:24:06;;;;;;;11.10;5.77;;;;;;;;;;4963242;28;20287;-64
2022/06/13 02:26:34;;;;;;;9.57;5.83;;;;;;;;;;4959673;28;20236;-64
2022/06/13 02:29:19;;;;;;;12.33;5.40;;;;;;;;;;4961933;28;20228;-63
2022/06/13 02:31:47;;;;;;;9.10;5.27;;;;;;;;;;4961197;28;20239;-61
2022/06/13 02:34:15;;;;;;;10.67;4.90;;;;;;;;;;4975783;28;20962;-63
2022/06/13 02:36:43;;;;;;;11.67;5.30;;;;;;;;;;4969069;28;20696;-63
2022/06/13 02:39:19;;;;;;;7.67;4.77;;;;;;;;;;4965767;28;20231;-64
2022/06/13 02:42:06;;;;;;;9.43;4.30;;;;;;;;;;4975941;28;20224;-62
2022/06/13 02:44:37;;;;;;;8.77;4.43;;;;;;;;;;4968227;28;20231;-63
2022/06/13 02:47:25;;;;;;;6.40;4.33;;;;;;;;;;4953814;28;20299;-62
2022/06/13 02:49:59;;;;;;;6.87;4.63;;;;;;;;;;4956375;28;20310;-64
2022/06/13 02:52:28;;;;;;;8.23;4.90;;;;;;;;;;4969612;28;20228;-64
2022/06/13 02:54:55;;;;;;;12.33;5.43;;;;;;;;;;4946069;28;21045;-65
2022/06/13 02:57:29;;;;;;;7.90;5.03;;;;;;;;;;4952048;28;20252;-64
2022/06/13 03:00:08;;;;;;;8.50;5.13;;;;;;;;;;4948851;28;20420;-65
2022/06/13 03:02:50;;;;;;;11.93;5.70;;;;;;;;;;4960502;28;20236;-64
2022/06/13 03:05:20;;;;;;;9.47;5.20;;;;;;;;;;4975213;28;20584;-66
2022/06/13 03:08:16;;;;;;;12.23;6.00;;;;;;;;;;4984054;28;20283;-67
2022/06/13 03:11:03;;;;;;;9.87;5.17;;;;;;;;;;4941601;28;20231;-65
2022/06/13 03:13:50;;;;;;;11.77;5.77;;;;;;;;;;4964570;28;20769;-66
2022/06/13 03:16:37;;;;;;;8.60;5.17;;;;;;;;;;4957487;28;20239;-66
2022/06/13 03:19:08;;;;;;;11.87;5.33;;;;;;;;;;4960985;28;20328;-66
2022/06/13 03:21:37;;;;;;;8.93;5.10;;;;;;;;;;4963052;28;20333;-65
2022/06/13 03:24:10;;;;;;;11.50;5.77;;;;;;;;;;4956969;28;20242;-68
2022/06/13 03:26:38;;;;;;;7.27;5.13;;;;;;;;;;4957406;28;20232;-65
2022/06/13 03:29:09;;;;;;;12.13;5.73;;;;;;;;;;4946420;28;20243;-66
2022/06/13 03:31:37;;;;;;;8.67;5.10;;;;;;;;;;4951069;28;27861;-66
2022/06/13 03:34:07;;;;;;;8.83;5.67;;;;;;;;;;4959658;28;20684;-66
2022/06/13 03:36:35;;;;;;;7.47;4.60;;;;;;;;;;4947925;28;20917;-66
2022/06/13 03:39:06;;;;;;;10.07;5.00;;;;;;;;;;4960124;28;21235;-67
2022/06/13 03:41:34;;;;;;;11.83;5.00;;;;;;;;;;4949123;28;21273;-65
2022/06/13 03:44:09;;;;;;;13.87;5.63;;;;;;;;;;4977997;28;20278;-65
2022/06/13 03:46:55;;;;;;;17.83;5.47;;;;;;;;;;4956337;28;20270;-63
2022/06/13 03:49:35;;;;;;;12.10;5.60;;;;;;;;;;4955826;28;20592;-64
2022/06/13 03:52:03;;;;;;;12.43;5.80;;;;;;;;;;4969152;28;20342;-64
2022/06/13 03:55:02;;;;;;;14.23;6.00;;;;;;;;;;5000633;28;20238;-64
2022/06/13 03:57:57;;;;;;;11.83;6.73;;;;;;;;;;4958019;28;20690;-64
2022/06/13 04:00:38;;;;;;;9.83;5.80;;;;;;;;;;4960362;28;20698;-64
2022/06/13 04:03:05;;;;;;;8.93;5.43;;;;;;;;;;4953575;28;20233;-64
2022/06/13 04:05:37;;;;;;;8.87;5.27;;;;;;;;;;4952248;28;20233;-64
2022/06/13 04:08:04;;;;;;;8.40;5.00;;;;;;;;;;4950348;28;20311;-66
2022/06/13 04:10:33;;;;;;;8.67;5.37;;;;;;;;;;4940061;28;20311;-66
2022/06/13 04:13:05;;;;;;;10.07;5.00;;;;;;;;;;4947885;28;20245;-63
2022/06/13 04:15:54;;;;;;;7.47;5.43;;;;;;;;;;4943431;28;20224;-65
2022/06/13 04:18:36;;;;;;;8.77;5.50;;;;;;;;;;4943558;28;25048;-67
2022/06/13 04:21:06;;;;;;;8.53;5.30;;;;;;;;;;4936526;28;24920;-66
2022/06/13 04:23:36;;;;;;;17.17;6.47;;;;;;;;;;4940689;28;20255;-64
2022/06/13 04:26:11;;;;;;;11.33;6.33;;;;;;;;;;4940842;28;37707;-64
2022/06/13 04:28:50;;;;;;;11.27;5.70;;;;;;;;;;4945941;28;20244;-65
2022/06/13 04:31:18;;;;;;;9.13;6.20;;;;;;;;;;4944331;28;20244;-65
2022/06/13 04:33:46;;;;;;;11.13;5.63;;;;;;;;;;4935483;28;20596;-65
2022/06/13 04:36:13;;;;;;;8.83;5.83;;;;;;;;;;4955687;28;20240;-70
2022/06/13 04:38:40;;;;;;;12.30;6.47;;;;;;;;;;4957028;28;20240;-64
2022/06/13 04:41:07;;;;;;;9.80;5.73;;;;;;;;;;4942288;28;20268;-67
2022/06/13 04:43:35;;;;;;;7.07;5.40;;;;;;;;;;4958368;28;20964;-64
2022/06/13 04:46:09;;;;;;;13.00;5.70;;;;;;;;;;4959129;28;20224;-65
2022/06/13 04:48:37;;;;;;;9.53;6.30;;;;;;;;;;4960981;28;20679;-65
2022/06/13 04:51:22;;;;;;;11.97;5.47;;;;;;;;;;4962660;28;20216;-64
2022/06/13 04:54:02;;;;;;;12.17;6.30;;;;;;;;;;4953626;28;20295;-65
2022/06/13 04:56:29;;;;;;;9.83;5.90;;;;;;;;;;4951093;28;20774;-65
2022/06/13 04:58:56;;;;;;;15.73;6.53;;;;;;;;;;4962767;28;20318;-64
2022/06/13 05:01:27;;;;;;;12.23;5.37;;;;;;;;;;5016931;28;20238;-65
2022/06/13 05:04:18;;;;;;;11.40;6.43;;;;;;;;;;5003984;28;20701;-65
2022/06/13 05:06:46;;;;;;;10.23;6.30;;;;;;;;;;4940194;28;20259;-65
2022/06/13 05:09:21;;;;;;;12.43;6.23;;;;;;;;;;4965100;28;20243;-65
2022/06/13 05:12:08;;;;;;;13.97;6.20;;;;;;;;;;4963005;28;20643;-64
2022/06/13 05:15:01;;;;;;;11.43;6.00;;;;;;;;;;4959186;28;20224;-64
2022/06/13 05:17:34;;;;;;;10.80;5.83;;;;;;;;;;4969931;28;20224;-65
2022/06/13 05:20:01;;;;;;;11.07;5.90;;;;;;;;;;4961836;28;20232;-64
2022/06/13 05:22:44;;;;;;;10.87;5.53;;;;;;;;;;4961523;28;20617;-64
2022/06/13 05:25:11;;;;;;;10.97;5.40;;;;;;;;;;4959824;28;20228;-65
2022/06/13 05:27:38;;;;;;;12.30;5.40;;;;;;;;;;4963262;28;20229;-65
2022/06/13 05:30:04;;;;;;;11.10;5.43;;;;;;;;;;4963246;28;20363;-65
2022/06/13 05:32:31;;;;;;;9.10;5.37;;;;;;;;;;4965938;28;20577;-65
2022/06/13 05:35:01;;;;;;;12.97;5.87;;;;;;;;;;4949054;28;20235;-64
2022/06/13 05:37:28;;;;;;;10.43;5.97;;;;;;;;;;5017271;28;20238;-65
2022/06/13 05:39:54;;;;;;;10.20;5.27;;;;;;;;;;4955843;28;20228;-65
2022/06/13 05:42:25;;;;;;;9.20;5.40;;;;;;;;;;4962837;28;20232;-65
2022/06/13 05:44:52;;;;;;;12.73;4.70;;;;;;;;;;4965629;28;20241;-65
2022/06/13 05:47:19;;;;;;;12.63;5.67;;;;;;;;;;4977335;28;20224;-65
2022/06/13 05:49:46;;;;;;;12.70;5.83;;;;;;;;;;4955094;28;20572;-64
2022/06/13 05:52:12;;;;;;;8.13;5.13;;;;;;;;;;4971838;28;20239;-65
2022/06/13 05:54:39;;;;;;;9.47;5.03;;;;;;;;;;4965518;28;20240;-65
2022/06/13 05:57:05;;;;;;;7.50;4.93;;;;;;;;;;4965436;28;20684;-65
2022/06/13 05:59:32;;;;;;;13.03;5.27;;;;;;;;;;4965632;28;20232;-65
2022/06/13 06:01:59;;;;;;;10.90;5.60;;;;;;;;;;4963637;28;20286;-65
2022/06/13 06:04:25;;;;;;;13.23;5.67;;;;;;;;;;4970936;28;20714;-65
2022/06/13 06:06:52;;;;;;;12.63;5.60;;;;;;;;;;4963523;28;20287;-65
2022/06/13 06:09:19;;;;;;;13.77;5.43;;;;;;;;;;4964823;28;20239;-65
2022/06/13 06:11:45;;;;;;;13.03;5.17;;;;;;;;;;4949490;28;20254;-65
2022/06/13 06:14:12;;;;;;;11.60;4.77;;;;;;;;;;4977296;28;20227;-64
2022/06/13 06:16:56;;;;;;;10.13;4.90;;;;;;;;;;4964494;28;20236;-65
2022/06/13 06:19:24;;;;;;;12.53;5.17;;;;;;;;;;4964807;28;20239;-64
2022/06/13 06:22:08;;;;;;;9.67;4.07;;;;;;;;;;5000829;28;20292;-65
2022/06/13 06:24:35;;;;;;;8.90;3.97;;;;;;;;;;5023969;28;20230;-63
2022/06/13 06:27:01;;;;;;;10.83;3.87;;;;;;;;;;5004497;28;20670;-64
2022/06/13 06:29:28;;;;;;;8.97;4.03;;;;;;;;;;5011992;28;20236;-64
2022/06/13 06:31:55;;;;;;;6.80;3.27;;;;;;;;;;4970046;28;20960;-65
2022/06/13 06:34:22;;;;;;;13.60;3.67;;;;;;;;;;4969105;28;20342;-64
2022/06/13 06:36:49;;;;;;;8.10;3.30;;;;;;;;;;4962289;28;20311;-64
2022/06/13 06:39:15;;;;;;;7.43;2.90;;;;;;;;;;4964251;28;20231;-64
2022/06/13 06:41:42;;;;;;;7.77;3.40;;;;;;;;;;4965869;28;20985;-64
2022/06/13 06:44:09;;;;;;;8.50;3.30;;;;;;;;;;4964471;28;23556;-64
2022/06/13 06:46:36;;;;;;;8.07;3.13;;;;;;;;;;4967105;28;20224;-64
2022/06/13 06:49:20;;;;;;;7.93;2.93;;;;;;;;;;4969123;28;20283;-64
2022/06/13 06:51:47;;;;;;;7.63;2.90;;;;;;;;;;4962114;28;20228;-65
2022/06/13 07:00:19;;;;;;;5.23;2.30;;;;;;;;;;4963078;28;20244;-65
2022/06/13 07:02:46;;;;;;;5.93;2.40;;;;;;;;;;4963997;28;20241;-65
2022/06/13 07:05:30;;;;;;;6.73;2.40;;;;;;;;;;4964031;28;20706;-64
2022/06/13 07:07:57;;;;;;;5.37;2.27;;;;;;;;;;4961441;28;20241;-65
2022/06/13 07:10:23;;;;;;;5.47;2.57;;;;;;;;;;4964032;28;20232;-65
2022/06/13 07:12:50;;;;;;;8.10;2.50;;;;;;;;;;4962075;28;20235;-64
2022/06/13 07:15:17;;;;;;;7.10;2.10;;;;;;;;;;4964135;28;20232;-64
2022/06/13 07:17:44;;;;;;;5.17;2.30;;;;;;;;;;4965664;28;20596;-63
2022/06/13 07:20:11;;;;;;;6.40;2.67;;;;;;;;;;4930308;28;20235;-66
2022/06/13 07:22:44;;;;;;;6.80;2.37;;;;;;;;;;4972742;28;20232;-65
2022/06/13 07:25:29;;;;;;;5.90;2.43;;;;;;;;;;4962739;28;20231;-65
2022/06/13 07:27:55;;;;;;;7.07;2.20;;;;;;;;;;4963507;28;20240;-64
2022/06/13 07:30:23;;;;;;;5.10;2.00;;;;;;;;;;4963628;28;20236;-65
2022/06/13 07:32:50;;;;;;;4.60;2.20;;;;;;;;;;4963620;28;23589;-64
2022/06/13 07:35:18;;;;;;;7.93;2.80;;;;;;;;;;4988522;28;20284;-65
2022/06/13 07:38:17;;;;;;;6.57;2.57;;;;;;;;;;5011230;28;20208;-65
2022/06/13 07:40:51;;;;;;;5.43;2.50;;;;;;;;;;4973526;28;20235;-68
2022/06/13 07:43:29;;;;;;;6.27;2.30;;;;;;;;;;4974459;28;31974;-68
2022/06/13 07:45:57;;;;;;;4.13;1.90;;;;;;;;;;4968952;28;20727;-67
2022/06/13 07:48:25;;;;;;;5.33;2.40;;;;;;;;;;4958335;28;20239;-67
2022/06/13 07:50:52;;;;;;;7.67;2.43;;;;;;;;;;4957312;28;21662;-66
2022/06/13 07:53:19;;;;;;;6.17;2.23;;;;;;;;;;4957521;28;20231;-66
2022/06/13 07:56:06;;;;;;;3.57;2.10;;;;;;;;;;4962774;28;21338;-65
2022/06/13 07:58:35;;;;;;;4.20;2.10;;;;;;;;;;4955720;28;20233;-66
2022/06/13 08:01:03;;;;;;;6.40;2.27;;;;;;;;;;4955238;28;20259;-64
2022/06/13 08:03:31;;;;;;;5.10;2.50;;;;;;;;;;4939568;28;20240;-65
2022/06/13 08:05:58;;;;;;;5.23;2.07;;;;;;;;;;4971666;28;20240;-66
2022/06/13 08:08:25;;;;;;;5.27;2.23;;;;;;;;;;4973805;28;20228;-66
2022/06/13 08:10:52;;;;;;;5.87;2.83;;;;;;;;;;4972689;28;20227;-65
2022/06/13 08:13:19;;;;;;;3.83;1.73;;;;;;;;;;4942675;28;20224;-66
2022/06/13 08:15:46;;;;;;;5.47;2.10;;;;;;;;;;4960244;28;20231;-65
2022/06/13 08:18:14;;;;;;;5.53;1.70;;;;;;;;;;4963224;28;20266;-64
2022/06/13 08:20:48;;;;;;;3.93;1.70;;;;;;;;;;4953516;28;20243;-65
2022/06/13 08:23:32;;;;;;;4.90;1.90;;;;;;;;;;4943485;28;20919;-64
2022/06/13 08:25:59;;;;;;;3.67;1.70;;;;;;;;;;4953150;28;20319;-65
2022/06/13 08:28:27;;;;;;;4.57;1.70;;;;;;;;;;4956915;28;20234;-65
2022/06/13 08:31:01;;;;;;;4.47;1.70;;;;;;;;;;4946417;28;20232;-64
2022/06/13 08:33:28;;;;;;;9.60;2.77;;;;;;;;;;4961486;28;20234;-64
2022/06/13 08:35:55;;;;;;;3.53;1.73;;;;;;;;;;4973147;28;20252;-65
2022/06/13 08:38:23;;;;;;;4.30;1.70;;;;;;;;;;4962407;28;20296;-65
2022/06/13 08:41:08;;;;;;;3.53;1.93;;;;;;;;;;4964656;28;20232;-63
2022/06/13 08:43:46;;;;;;;3.97;1.57;;;;;;;;;;4958596;28;20758;-63
2022/06/13 08:46:48;;;;;;;3.80;1.63;;;;;;;;;;4964064;28;20314;-64
2022/06/13 08:49:22;;;;;;;4.50;1.50;;;;;;;;;;4962526;28;20238;-64
2022/06/13 08:51:54;;;;;;;7.70;1.60;;;;;;;;;;4972046;28;20227;-65
2022/06/13 08:54:28;;;;;;;3.80;1.47;;;;;;;;;;4963784;28;20887;-64
2022/06/13 08:56:55;;;;;;;5.77;1.63;;;;;;;;;;4949440;28;20364;-64
2022/06/13 08:59:23;;;;;;;5.03;2.00;;;;;;;;;;4962359;28;20254;-64
2022/06/13 09:01:52;;;;;;;4.13;1.90;;;;;;;;;;4976806;28;20227;-65
2022/06/13 09:04:50;;;;;;;4.40;1.60;;;;;;;;;;4963477;28;20244;-65
2022/06/13 09:07:20;;;;;;;3.40;1.80;;;;;;;;;;4958288;28;22748;-67
2022/06/13 09:10:09;;;;;;;5.63;1.57;;;;;;;;;;4968426;28;20613;-65
2022/06/13 09:12:42;;;;;;;5.73;1.70;;;;;;;;;;4955125;28;20247;-66
2022/06/13 09:15:09;;;;;;;3.57;1.60;;;;;;;;;;4993129;28;20243;-65
2022/06/13 09:17:51;;;;;;;5.47;1.77;;;;;;;;;;4961858;28;20592;-66
2022/06/13 09:20:20;;;;;;;5.37;1.90;;;;;;;;;;4965260;28;20827;-64
2022/06/13 09:22:50;;;;;;;4.63;1.70;;;;;;;;;;4954117;28;20283;-65
2022/06/13 09:25:19;;;;;;;4.73;1.90;;;;;;;;;;4937459;28;20802;-65
2022/06/13 09:28:12;;;;;;;3.40;1.60;;;;;;;;;;4961256;28;20580;-64
2022/06/13 09:30:49;;;;;;;5.10;1.53;;;;;;;;;;4966711;28;20227;-65
2022/06/13 09:33:25;;;;;;;4.93;1.63;;;;;;;;;;4963330;28;29943;-65
2022/06/13 09:35:54;;;;;;;3.50;1.70;;;;;;;;;;4936686;28;20321;-65
2022/06/13 09:38:22;;;;;;;5.83;1.70;;;;;;;;;;4973986;28;20310;-64
2022/06/13 09:40:55;;;;;;;3.87;1.70;;;;;;;;;;4977722;28;20314;-65
2022/06/13 09:43:40;;;;;;;3.63;1.80;;;;;;;;;;4942662;28;20255;-65
2022/06/13 09:46:24;;;;;;;5.90;1.90;;;;;;;;;;4962911;28;32037;-64
2022/06/13 09:49:10;;;;;;;5.37;2.00;;;;;;;;;;4955324;28;20231;-63
2022/06/13 09:51:47;;;;;;;6.27;2.03;;;;;;;;;;4966276;28;20243;-63
2022/06/13 09:54:17;;;;;;;5.43;1.70;;;;;;;;;;4940032;28;20232;-65
2022/06/13 09:56:46;;;;;;;6.10;1.70;;;;;;;;;;4969848;28;20910;-63
2022/06/13 09:59:21;;;;;;;4.83;1.70;;;;;;;;;;4968148;28;20302;-63
2022/06/13 10:01:49;;;;;;;4.00;1.70;;;;;;;;;;4973385;28;20231;-64
2022/06/13 10:04:18;;;;;;;6.33;1.70;;;;;;;;;;4963013;28;20251;-67
2022/06/13 10:06:45;;;;;;;5.37;1.73;;;;;;;;;;4946527;28;20232;-64
2022/06/13 10:09:14;;;;;;;5.53;1.93;;;;;;;;;;4969450;28;20232;-64
2022/06/13 10:11:56;;;;;;;4.50;1.50;;;;;;;;;;4962761;28;21086;-68
2022/06/13 10:14:38;;;;;;;5.70;1.63;;;;;;;;;;4964887;28;20242;-64
2022/06/13 10:17:08;;;;;;;4.57;1.70;;;;;;;;;;4973886;28;20239;-64
2022/06/13 10:19:57;;;;;;;4.17;1.37;;;;;;;;;;4964012;28;20334;-64
2022/06/13 10:22:36;;;;;;;4.60;1.57;;;;;;;;;;4973550;28;20236;-66
2022/06/13 10:25:09;;;;;;;4.10;1.50;;;;;;;;;;4966900;28;20313;-64
2022/06/13 10:27:52;;;;;;;3.83;1.63;;;;;;;;;;4947513;28;20246;-63
2022/06/13 10:31:00;;;;;;;4.80;1.30;;;;;;;;;;4972357;28;20225;-65
2022/06/13 10:33:34;;;;;;;5.10;1.70;;;;;;;;;;4962854;28;20373;-65
2022/06/13 10:36:05;;;;;;;4.80;1.53;;;;;;;;;;4931944;28;20364;-64
2022/06/13 10:38:44;;;;;;;2.50;1.30;;;;;;;;;;4947578;28;20246;-66
2022/06/13 10:41:10;;;;;;;5.03;1.20;;;;;;;;;;4964810;28;22245;-65
2022/06/13 10:43:37;;;;;;;4.50;1.50;;;;;;;;;;4963334;28;20240;-64
2022/06/13 10:46:05;;;;;;;8.30;1.73;;;;;;;;;;4969484;28;20228;-63
2022/06/13 10:48:58;;;;;;;7.67;1.80;;;;;;;;;;4964656;28;20221;-64
2022/06/13 10:51:25;;;;;;;7.03;2.30;;;;;;;;;;4943150;28;20909;-63
2022/06/13 10:54:07;;;;;;;6.63;2.57;;;;;;;;;;4959359;28;20248;-63
2022/06/13 10:56:43;;;;;;;9.80;2.20;;;;;;;;;;4972110;28;20243;-64
2022/06/13 10:59:22;;;;;;;7.20;2.50;;;;;;;;;;4945269;28;223982;-65
2022/06/13 11:02:00;;;;;;;5.60;2.30;;;;;;;;;;4959687;28;24870;-64
2022/06/13 11:04:44;;;;;;;6.27;2.50;;;;;;;;;;4953442;28;20309;-63
2022/06/13 11:07:11;;;;;;;5.93;2.30;;;;;;;;;;4930367;28;20761;-64
2022/06/13 11:09:38;;;;;;;6.57;2.87;;;;;;;;;;4954022;28;20668;-63
2022/06/13 11:12:16;;;;;;;5.03;2.53;;;;;;;;;;4961964;28;20313;-64
2022/06/13 11:23:06;;;;;;;10.67;4.33;;;;;;;;;;4948439;28;20687;-64
2022/06/13 11:25:33;;;;;;;11.90;4.57;;;;;;;;;;4973170;28;20310;-65
2022/06/13 11:28:00;;;;;;;6.63;3.90;;;;;;;;;;4970233;28;20695;-63
2022/06/13 11:30:27;;;;;;;9.90;3.73;;;;;;;;;;4967641;28;20232;-63
2022/06/13 11:33:31;;;;;;;9.50;3.70;;;;;;;;;;4966965;28;20240;-65
2022/06/13 11:36:01;;;;;;;10.07;4.10;;;;;;;;;;4963613;28;20233;-65
2022/06/13 11:38:29;;;;;;;6.93;3.30;;;;;;;;;;4965909;28;20287;-65
2022/06/13 11:40:56;;;;;;;8.37;3.37;;;;;;;;;;4963400;28;20240;-64
2022/06/13 11:43:42;;;;;;;9.90;3.50;;;;;;;;;;4961144;28;20228;-65
2022/06/13 11:46:16;;;;;;;6.17;3.10;;;;;;;;;;4967632;28;20307;-65
2022/06/13 11:48:47;;;;;;;7.70;3.67;;;;;;;;;;4961155;28;20396;-65
2022/06/13 11:51:18;;;;;;;9.67;3.43;;;;;;;;;;4960927;28;20287;-65
2022/06/13 11:53:45;;;;;;;8.00;4.00;;;;;;;;;;4971598;28;20236;-66
2022/06/13 11:56:20;;;;;;;6.70;3.50;;;;;;;;;;4975224;28;20240;-65
2022/06/13 11:58:47;;;;;;;9.57;3.37;;;;;;;;;;4964200;28;20228;-65
2022/06/13 12:01:23;;;;;;;7.83;4.00;;;;;;;;;;4963317;28;20229;-65
2022/06/13 12:04:07;;;;;;;12.27;4.03;;;;;;;;;;4961437;28;20237;-65
2022/06/13 12:06:44;;;;;;;6.77;4.10;;;;;;;;;;4963395;28;20244;-64
2022/06/13 12:09:13;;;;;;;7.63;3.87;;;;;;;;;;4961450;28;20223;-65
2022/06/13 12:11:45;;;;;;;12.27;4.07;;;;;;;;;;4962505;28;20229;-65
2022/06/13 12:14:12;;;;;;;11.73;3.80;;;;;;;;;;4961117;28;20688;-65
2022/06/13 12:16:41;;;;;;;13.03;4.30;;;;;;;;;;4962662;28;20248;-65
2022/06/13 12:19:10;;;;;;;7.87;4.10;;;;;;;;;;4955788;28;20303;-66
2022/06/13 12:21:43;;;;;;;9.50;4.40;;;;;;;;;;4948463;28;20243;-65
2022/06/13 12:24:10;;;;;;;10.27;4.03;;;;;;;;;;4961516;28;20372;-65
2022/06/13 12:26:37;;;;;;;9.30;3.70;;;;;;;;;;4980342;28;20242;-65
2022/06/13 12:29:04;;;;;;;8.20;3.87;;;;;;;;;;5002291;28;20712;-65
2022/06/13 12:31:36;;;;;;;8.77;3.60;;;;;;;;;;4952985;28;20232;-65
2022/06/13 12:34:12;;;;;;;8.60;3.10;;;;;;;;;;4942852;28;25250;-65
2022/06/13 12:36:39;;;;;;;7.70;2.97;;;;;;;;;;4962269;28;20750;-65
2022/06/13 12:39:09;;;;;;;6.33;2.40;;;;;;;;;;4961905;28;20232;-65
2022/06/13 12:41:44;;;;;;;8.03;3.03;;;;;;;;;;4960375;28;20260;-66
2022/06/13 12:44:15;;;;;;;7.53;2.73;;;;;;;;;;4960581;28;20231;-66
2022/06/13 12:47:02;;;;;;;7.73;3.13;;;;;;;;;;4964857;28;20228;-65
2022/06/13 12:49:48;;;;;;;9.10;3.07;;;;;;;;;;4962554;28;20315;-66
2022/06/13 12:52:50;;;;;;;8.27;2.83;;;;;;;;;;4960128;28;20282;-66
2022/06/13 12:55:46;;;;;;;6.57;2.50;;;;;;;;;;4872680;29;20234;-65
2022/06/13 12:58:20;;;;;;;6.80;2.53;;;;;;;;;;4972474;28;20357;-65
2022/06/13 13:00:56;;;;;;;6.10;2.63;;;;;;;;;;5019620;28;20578;-65
2022/06/13 13:03:29;;;;;;;4.87;2.53;;;;;;;;;;4961821;28;20569;-65
2022/06/13 13:06:29;;;;;;;6.47;2.70;;;;;;;;;;4959884;28;20692;-65
2022/06/13 13:09:02;;;;;;;7.47;2.67;;;;;;;;;;4951719;28;20239;-65
2022/06/13 13:11:38;;;;;;;6.37;2.53;;;;;;;;;;4960686;28;20244;-65
2022/06/13 13:14:40;;;;;;;7.83;2.43;;;;;;;;;;4959671;28;20269;-65
2022/06/13 13:17:33;;;;;;;6.30;2.50;;;;;;;;;;4892586;29;20227;-65
2022/06/13 13:20:19;;;;;;;6.53;2.33;;;;;;;;;;5016893;28;20614;-65
2022/06/13 13:22:49;;;;;;;6.37;2.53;;;;;;;;;;4986845;28;20226;-65
2022/06/13 13:25:37;;;;;;;6.90;2.60;;;;;;;;;;5017997;28;20234;-66
2022/06/13 13:28:19;;;;;;;7.00;2.97;;;;;;;;;;5001523;28;20614;-66
2022/06/13 13:30:57;;;;;;;6.93;2.73;;;;;;;;;;5019021;28;20233;-65
2022/06/13 13:33:31;;;;;;;7.57;2.27;;;;;;;;;;4966446;28;20318;-65
2022/06/13 13:36:01;;;;;;;8.53;2.47;;;;;;;;;;4973923;28;20237;-65
2022/06/13 13:38:47;;;;;;;8.33;2.70;;;;;;;;;;4955666;28;20228;-65
2022/06/13 13:41:15;;;;;;;4.97;2.20;;;;;;;;;;4946224;28;20224;-65
2022/06/13 13:43:53;;;;;;;9.30;2.20;;;;;;;;;;4944667;28;20240;-65
2022/06/13 13:46:21;;;;;;;9.37;2.80;;;;;;;;;;4951205;28;20252;-65
2022/06/13 13:49:14;;;;;;;7.40;2.37;;;;;;;;;;4961908;28;20696;-65
2022/06/13 13:51:41;;;;;;;6.03;1.67;;;;;;;;;;4953202;28;20228;-64
2022/06/13 13:54:19;;;;;;;6.77;1.90;;;;;;;;;;4963289;28;20239;-69
2022/06/13 13:56:50;;;;;;;6.23;1.90;;;;;;;;;;4951284;28;20231;-65
2022/06/13 13:59:35;;;;;;;7.10;1.80;;;;;;;;;;4962851;28;20232;-65
2022/06/13 14:02:17;;;;;;;7.77;1.60;;;;;;;;;;4959775;28;20229;-65
2022/06/13 14:04:56;;;;;;;6.03;1.70;;;;;;;;;;4978767;28;20801;-65
2022/06/13 14:07:42;;;;;;;5.07;1.60;;;;;;;;;;4964804;28;20587;-65
2022/06/13 14:10:09;;;;;;;7.23;1.80;;;;;;;;;;4962939;28;20332;-67
2022/06/13 14:12:55;;;;;;;6.50;2.10;;;;;;;;;;4967328;28;20398;-65
2022/06/13 14:15:29;;;;;;;5.23;1.70;;;;;;;;;;4963972;28;20307;-66
2022/06/13 14:17:56;;;;;;;4.60;1.57;;;;;;;;;;4962431;28;20619;-65
2022/06/13 14:20:40;;;;;;;7.03;1.77;;;;;;;;;;4964985;28;20235;-64
2022/06/13 14:23:07;;;;;;;6.17;2.10;;;;;;;;;;4947309;28;20236;-64
2022/06/13 14:25:38;;;;;;;4.80;1.67;;;;;;;;;;4964911;28;20240;-64
2022/06/13 14:28:06;;;;;;;9.20;1.87;;;;;;;;;;4951831;28;20235;-65
2022/06/13 14:36:50;;;;;;;4.07;1.40;;;;;;;;;;4949863;28;20224;-64
2022/06/13 14:39:37;;;;;;;7.77;1.80;;;;;;;;;;4962347;28;20239;-64
2022/06/13 14:42:22;;;;;;;6.50;1.80;;;;;;;;;;4955558;28;216997;-64
2022/06/13 14:45:12;;;;;;;3.60;1.53;;;;;;;;;;4962891;28;20401;-66
2022/06/13 14:47:42;;;;;;;5.53;1.90;;;;;;;;;;4935033;28;20232;-65
2022/06/13 14:50:13;;;;;;;4.60;1.70;;;;;;;;;;4968983;28;20226;-65
2022/06/13 14:52:52;;;;;;;6.17;1.70;;;;;;;;;;4954331;28;20224;-64
2022/06/13 14:55:21;;;;;;;9.67;4.87;;;;;;;;;;4946520;28;20251;-64
2022/06/13 14:57:48;;;;;;;7.20;3.80;;;;;;;;;;4965482;28;20232;-65
2022/06/13 15:00:21;;;;;;;9.03;4.50;;;;;;;;;;4965327;28;20228;-64
2022/06/13 15:03:06;;;;;;;11.03;4.53;;;;;;;;;;4946632;28;20240;-64
2022/06/13 15:05:33;;;;;;;6.50;2.10;;;;;;;;;;4955241;28;20236;-65
2022/06/13 15:08:18;;;;;;;3.30;1.57;;;;;;;;;;4971089;28;20239;-64
2022/06/13 15:10:57;;;;;;;4.23;1.23;;;;;;;;;;4962043;28;21054;-66
2022/06/13 15:13:26;;;;;;;3.53;1.40;;;;;;;;;;4964419;28;20686;-66
2022/06/13 15:15:54;;;;;;;5.97;1.40;;;;;;;;;;4960627;28;20260;-64
2022/06/13 15:18:22;;;;;;;4.97;1.60;;;;;;;;;;4959414;28;20247;-67
2022/06/13 15:20:51;;;;;;;4.40;1.13;;;;;;;;;;4973994;28;30605;-65
2022/06/13 15:23:19;;;;;;;2.70;1.13;;;;;;;;;;4954702;28;20240;-65
2022/06/13 15:25:47;;;;;;;6.13;2.40;;;;;;;;;;4967053;28;20267;-70
2022/06/13 15:28:18;;;;;;;5.53;1.80;;;;;;;;;;4968852;28;20302;-66
2022/06/13 15:30:45;;;;;;;4.10;1.43;;;;;;;;;;4961657;28;20232;-66
2022/06/13 15:33:22;;;;;;;4.63;1.17;;;;;;;;;;4972764;28;20258;-64
2022/06/13 15:36:13;;;;;;;3.73;1.20;;;;;;;;;;4976135;28;20311;-63
2022/06/13 15:38:42;;;;;;;3.70;1.90;;;;;;;;;;4961280;28;20238;-66
2022/06/13 15:41:10;;;;;;;5.10;2.17;;;;;;;;;;4966132;28;20708;-67
2022/06/13 15:43:48;;;;;;;4.10;1.60;;;;;;;;;;4961040;28;20231;-66